sensor_id;sensor_type;location;lat;lon;timestamp;temperature;humidity
15625;DHT22;7912;51.376;6.126;2022-09-09T00:00:16;17.60;99.90
15625;DHT22;7912;51.376;6.126;2022-09-09T00:03:27;17.60;99.90
15625;DHT22;7912;51.376;6.126;2022-09-09T00:10:03;17.60;99.90
15625;DHT22;7912;51.376;6.126;2022-09-09T00:16:29;17.50;99.90
15625;DHT22;7912;51.376;6.126;2022-09-09T00:22:45;17.50;99.90
15625;DHT22;7912;51.376;6.126;2022-09-09T00:29:23;17.50;99.90
15625;DHT22;7912;51.376;6.126;2022-09-09T00:32:18;17.40;99.90
15625;DHT22;7912;51.376;6.126;2022-09-09T00:35:02;17.40;99.90
15625;DHT22;7912;51.376;6.126;2022-09-09T00:38:14;17.40;99.90
15625;DHT22;7912;51.376;6.126;2022-09-09T00:41:17;17.40;99.90
15625;DHT22;7912;51.376;6.126;2022-09-09T00:44:33;17.40;99.90
15625;DHT22;7912;51.376;6.126;2022-09-09T00:56:50;17.30;99.90
15625;DHT22;7912;51.376;6.126;2022-09-09T01:03:33;17.20;99.90
15625;DHT22;7912;51.376;6.126;2022-09-09T01:06:32;17.20;99.90
15625;DHT22;7912;51.376;6.126;2022-09-09T01:15:27;17.20;99.90
15625;DHT22;7912;51.376;6.126;2022-09-09T01:18:13;17.20;99.90
15625;DHT22;7912;51.376;6.126;2022-09-09T01:27:25;17.20;99.90
15625;DHT22;7912;51.376;6.126;2022-09-09T01:29:56;17.20;99.90
15625;DHT22;7912;51.376;6.126;2022-09-09T01:32:48;17.20;99.90
15625;DHT22;7912;51.376;6.126;2022-09-09T01:38:43;17.20;99.90
15625;DHT22;7912;51.376;6.126;2022-09-09T01:41:14;17.20;99.90
15625;DHT22;7912;51.376;6.126;2022-09-09T01:43:43;17.20;99.90
15625;DHT22;7912;51.376;6.126;2022-09-09T01:46:12;17.20;99.90
15625;DHT22;7912;51.376;6.126;2022-09-09T01:48:41;17.20;99.90
15625;DHT22;7912;51.376;6.126;2022-09-09T01:51:10;17.20;99.90
15625;DHT22;7912;51.376;6.126;2022-09-09T01:53:40;17.20;99.90
15625;DHT22;7912;51.376;6.126;2022-09-09T01:59:42;17.20;99.90
15625;DHT22;7912;51.376;6.126;2022-09-09T02:02:43;17.20;99.90
15625;DHT22;7912;51.376;6.126;2022-09-09T02:05:41;17.20;99.90
15625;DHT22;7912;51.376;6.126;2022-09-09T02:08:47;17.20;99.90
15625;DHT22;7912;51.376;6.126;2022-09-09T02:11:18;17.20;99.90
15625;DHT22;7912;51.376;6.126;2022-09-09T02:13:52;17.20;99.90
15625;DHT22;7912;51.376;6.126;2022-09-09T02:16:42;17.30;99.90
15625;DHT22;7912;51.376;6.126;2022-09-09T02:19:18;17.30;99.90
15625;DHT22;7912;51.376;6.126;2022-09-09T02:21:54;17.30;99.90
15625;DHT22;7912;51.376;6.126;2022-09-09T02:24:23;17.30;99.90
15625;DHT22;7912;51.376;6.126;2022-09-09T02:26:53;17.30;99.90
15625;DHT22;7912;51.376;6.126;2022-09-09T02:29:28;17.30;99.90
15625;DHT22;7912;51.376;6.126;2022-09-09T02:32:04;17.30;99.90
15625;DHT22;7912;51.376;6.126;2022-09-09T02:34:37;17.30;99.90
15625;DHT22;7912;51.376;6.126;2022-09-09T02:37:15;17.30;99.90
15625;DHT22;7912;51.376;6.126;2022-09-09T02:39:47;17.30;99.90
15625;DHT22;7912;51.376;6.126;2022-09-09T02:42:17;17.30;99.90
15625;DHT22;7912;51.376;6.126;2022-09-09T02:44:46;17.30;99.90
15625;DHT22;7912;51.376;6.126;2022-09-09T02:57:12;17.30;99.90
15625;DHT22;7912;51.376;6.126;2022-09-09T03:00:00;17.30;99.90
15625;DHT22;7912;51.376;6.126;2022-09-09T03:02:29;17.30;99.90
15625;DHT22;7912;51.376;6.126;2022-09-09T03:08:23;17.40;99.90
15625;DHT22;7912;51.376;6.126;2022-09-09T03:10:51;17.40;99.90
15625;DHT22;7912;51.376;6.126;2022-09-09T03:13:24;17.40;99.90
15625;DHT22;7912;51.376;6.126;2022-09-09T03:15:52;17.40;99.90
15625;DHT22;7912;51.376;6.126;2022-09-09T03:18:19;17.40;99.90
15625;DHT22;7912;51.376;6.126;2022-09-09T03:20:49;17.50;99.90
15625;DHT22;7912;51.376;6.126;2022-09-09T03:23:16;17.50;99.90
15625;DHT22;7912;51.376;6.126;2022-09-09T03:25:50;17.50;99.90
15625;DHT22;7912;51.376;6.126;2022-09-09T03:28:19;17.50;99.90
15625;DHT22;7912;51.376;6.126;2022-09-09T03:30:47;17.50;99.90
15625;DHT22;7912;51.376;6.126;2022-09-09T03:33:15;17.60;99.90
15625;DHT22;7912;51.376;6.126;2022-09-09T03:35:46;17.60;99.90
15625;DHT22;7912;51.376;6.126;2022-09-09T03:38:23;17.60;99.90
15625;DHT22;7912;51.376;6.126;2022-09-09T03:40:55;17.60;99.90
15625;DHT22;7912;51.376;6.126;2022-09-09T03:43:25;17.70;99.90
15625;DHT22;7912;51.376;6.126;2022-09-09T03:45:54;17.70;99.90
15625;DHT22;7912;51.376;6.126;2022-09-09T03:48:25;17.70;99.90
15625;DHT22;7912;51.376;6.126;2022-09-09T03:50:55;17.70;99.90
15625;DHT22;7912;51.376;6.126;2022-09-09T03:53:25;17.80;99.90
15625;DHT22;7912;51.376;6.126;2022-09-09T03:55:54;17.80;99.90
15625;DHT22;7912;51.376;6.126;2022-09-09T03:58:27;17.80;99.90
15625;DHT22;7912;51.376;6.126;2022-09-09T04:00:56;17.90;99.90
15625;DHT22;7912;51.376;6.126;2022-09-09T04:03:26;17.90;99.90
15625;DHT22;7912;51.376;6.126;2022-09-09T04:05:56;17.90;99.90
15625;DHT22;7912;51.376;6.126;2022-09-09T04:08:26;17.90;99.90
15625;DHT22;7912;51.376;6.126;2022-09-09T04:10:54;17.90;99.90
15625;DHT22;7912;51.376;6.126;2022-09-09T04:13:25;17.90;99.90
15625;DHT22;7912;51.376;6.126;2022-09-09T04:15:58;17.90;99.90
15625;DHT22;7912;51.376;6.126;2022-09-09T04:18:29;17.90;99.90
15625;DHT22;7912;51.376;6.126;2022-09-09T04:20:57;18.00;99.90
15625;DHT22;7912;51.376;6.126;2022-09-09T04:23:26;18.00;99.90
15625;DHT22;7912;51.376;6.126;2022-09-09T04:25:58;18.00;99.90
15625;DHT22;7912;51.376;6.126;2022-09-09T04:28:28;18.10;99.90
15625;DHT22;7912;51.376;6.126;2022-09-09T04:31:05;18.10;99.90
15625;DHT22;7912;51.376;6.126;2022-09-09T04:33:44;18.10;99.90
15625;DHT22;7912;51.376;6.126;2022-09-09T04:36:13;18.10;99.90
15625;DHT22;7912;51.376;6.126;2022-09-09T04:38:40;18.20;99.90
15625;DHT22;7912;51.376;6.126;2022-09-09T04:41:08;18.20;99.90
15625;DHT22;7912;51.376;6.126;2022-09-09T04:43:40;18.20;99.90
15625;DHT22;7912;51.376;6.126;2022-09-09T04:46:10;18.20;99.90
15625;DHT22;7912;51.376;6.126;2022-09-09T04:48:38;18.20;99.90
15625;DHT22;7912;51.376;6.126;2022-09-09T04:51:11;18.20;99.90
15625;DHT22;7912;51.376;6.126;2022-09-09T04:53:39;18.30;99.90
15625;DHT22;7912;51.376;6.126;2022-09-09T04:56:12;18.30;99.90
15625;DHT22;7912;51.376;6.126;2022-09-09T04:58:41;18.30;99.90
15625;DHT22;7912;51.376;6.126;2022-09-09T05:03:46;18.30;99.90
15625;DHT22;7912;51.376;6.126;2022-09-09T05:06:16;18.40;99.90
15625;DHT22;7912;51.376;6.126;2022-09-09T05:08:45;18.40;99.90
15625;DHT22;7912;51.376;6.126;2022-09-09T05:11:21;18.40;99.90
15625;DHT22;7912;51.376;6.126;2022-09-09T05:13:53;18.40;99.90
15625;DHT22;7912;51.376;6.126;2022-09-09T05:16:46;18.40;99.90
15625;DHT22;7912;51.376;6.126;2022-09-09T05:19:13;18.40;99.90
15625;DHT22;7912;51.376;6.126;2022-09-09T05:21:41;18.50;99.90
15625;DHT22;7912;51.376;6.126;2022-09-09T05:24:08;18.50;99.90
15625;DHT22;7912;51.376;6.126;2022-09-09T05:26:38;18.50;99.90
15625;DHT22;7912;51.376;6.126;2022-09-09T05:29:09;18.50;99.90
15625;DHT22;7912;51.376;6.126;2022-09-09T05:31:36;18.50;99.90
15625;DHT22;7912;51.376;6.126;2022-09-09T05:34:14;18.50;99.90
15625;DHT22;7912;51.376;6.126;2022-09-09T05:36:47;18.50;99.90
15625;DHT22;7912;51.376;6.126;2022-09-09T05:39:19;18.50;99.90
15625;DHT22;7912;51.376;6.126;2022-09-09T05:41:46;18.60;99.90
15625;DHT22;7912;51.376;6.126;2022-09-09T05:44:14;18.60;99.90
15625;DHT22;7912;51.376;6.126;2022-09-09T05:46:42;18.60;99.90
15625;DHT22;7912;51.376;6.126;2022-09-09T05:49:17;18.60;99.90
15625;DHT22;7912;51.376;6.126;2022-09-09T05:52:04;18.60;99.90
15625;DHT22;7912;51.376;6.126;2022-09-09T05:54:31;18.60;99.90
15625;DHT22;7912;51.376;6.126;2022-09-09T05:57:02;18.60;99.90
15625;DHT22;7912;51.376;6.126;2022-09-09T05:59:29;18.60;99.90
15625;DHT22;7912;51.376;6.126;2022-09-09T06:01:59;18.70;99.90
15625;DHT22;7912;51.376;6.126;2022-09-09T06:04:27;18.70;99.90
15625;DHT22;7912;51.376;6.126;2022-09-09T06:06:56;18.70;99.90
15625;DHT22;7912;51.376;6.126;2022-09-09T06:09:26;18.70;99.90
15625;DHT22;7912;51.376;6.126;2022-09-09T06:11:53;18.70;99.90
15625;DHT22;7912;51.376;6.126;2022-09-09T06:14:21;18.80;99.90
15625;DHT22;7912;51.376;6.126;2022-09-09T06:16:49;18.90;99.90
15625;DHT22;7912;51.376;6.126;2022-09-09T06:19:16;18.90;99.90
15625;DHT22;7912;51.376;6.126;2022-09-09T06:21:44;18.90;99.90
15625;DHT22;7912;51.376;6.126;2022-09-09T06:24:11;18.90;99.90
15625;DHT22;7912;51.376;6.126;2022-09-09T06:26:44;19.00;99.90
15625;DHT22;7912;51.376;6.126;2022-09-09T06:29:12;19.00;99.90
15625;DHT22;7912;51.376;6.126;2022-09-09T06:31:39;19.10;99.90
15625;DHT22;7912;51.376;6.126;2022-09-09T06:34:10;19.10;99.90
15625;DHT22;7912;51.376;6.126;2022-09-09T06:36:40;19.00;99.90
15625;DHT22;7912;51.376;6.126;2022-09-09T06:39:11;19.10;99.90
15625;DHT22;7912;51.376;6.126;2022-09-09T06:41:41;19.10;99.90
15625;DHT22;7912;51.376;6.126;2022-09-09T06:44:10;19.10;99.90
15625;DHT22;7912;51.376;6.126;2022-09-09T06:46:38;19.10;99.90
15625;DHT22;7912;51.376;6.126;2022-09-09T06:49:08;19.10;99.90
15625;DHT22;7912;51.376;6.126;2022-09-09T06:51:37;19.20;99.90
15625;DHT22;7912;51.376;6.126;2022-09-09T06:54:12;19.20;99.90
15625;DHT22;7912;51.376;6.126;2022-09-09T06:56:41;19.30;99.90
15625;DHT22;7912;51.376;6.126;2022-09-09T06:59:10;19.40;99.90
15625;DHT22;7912;51.376;6.126;2022-09-09T07:01:40;19.50;99.90
15625;DHT22;7912;51.376;6.126;2022-09-09T07:04:09;19.50;99.90
15625;DHT22;7912;51.376;6.126;2022-09-09T07:06:40;19.60;99.90
15625;DHT22;7912;51.376;6.126;2022-09-09T07:09:14;19.70;99.90
15625;DHT22;7912;51.376;6.126;2022-09-09T07:11:45;19.70;99.90
15625;DHT22;7912;51.376;6.126;2022-09-09T07:14:14;19.80;99.90
15625;DHT22;7912;51.376;6.126;2022-09-09T07:16:43;19.80;99.90
15625;DHT22;7912;51.376;6.126;2022-09-09T07:19:12;19.80;99.90
15625;DHT22;7912;51.376;6.126;2022-09-09T07:21:41;19.90;99.90
15625;DHT22;7912;51.376;6.126;2022-09-09T07:24:09;19.90;99.90
15625;DHT22;7912;51.376;6.126;2022-09-09T07:26:39;20.00;99.90
15625;DHT22;7912;51.376;6.126;2022-09-09T07:29:08;20.10;99.90
15625;DHT22;7912;51.376;6.126;2022-09-09T07:31:46;20.20;99.90
15625;DHT22;7912;51.376;6.126;2022-09-09T07:34:15;20.30;99.90
15625;DHT22;7912;51.376;6.126;2022-09-09T07:36:42;20.30;99.90
15625;DHT22;7912;51.376;6.126;2022-09-09T07:39:12;20.30;99.90
15625;DHT22;7912;51.376;6.126;2022-09-09T07:41:42;20.30;99.90
15625;DHT22;7912;51.376;6.126;2022-09-09T07:44:17;20.40;99.90
15625;DHT22;7912;51.376;6.126;2022-09-09T07:46:48;20.40;99.90
15625;DHT22;7912;51.376;6.126;2022-09-09T07:49:18;20.40;99.90
15625;DHT22;7912;51.376;6.126;2022-09-09T07:51:55;20.40;99.90
15625;DHT22;7912;51.376;6.126;2022-09-09T07:54:22;20.40;99.90
15625;DHT22;7912;51.376;6.126;2022-09-09T07:56:52;20.40;99.90
15625;DHT22;7912;51.376;6.126;2022-09-09T07:59:21;20.40;99.90
15625;DHT22;7912;51.376;6.126;2022-09-09T08:01:50;20.40;99.90
15625;DHT22;7912;51.376;6.126;2022-09-09T08:04:23;20.40;99.90
15625;DHT22;7912;51.376;6.126;2022-09-09T08:06:59;20.40;99.90
15625;DHT22;7912;51.376;6.126;2022-09-09T08:09:32;20.40;99.90
15625;DHT22;7912;51.376;6.126;2022-09-09T08:12:00;20.50;99.90
15625;DHT22;7912;51.376;6.126;2022-09-09T08:14:39;20.60;99.90
15625;DHT22;7912;51.376;6.126;2022-09-09T08:17:55;20.70;99.90
15625;DHT22;7912;51.376;6.126;2022-09-09T08:20:23;20.90;99.90
15625;DHT22;7912;51.376;6.126;2022-09-09T08:22:50;21.10;99.90
15625;DHT22;7912;51.376;6.126;2022-09-09T08:25:17;21.20;99.90
15625;DHT22;7912;51.376;6.126;2022-09-09T08:27:45;21.30;99.90
15625;DHT22;7912;51.376;6.126;2022-09-09T08:30:18;21.40;99.90
15625;DHT22;7912;51.376;6.126;2022-09-09T08:32:46;21.40;99.90
15625;DHT22;7912;51.376;6.126;2022-09-09T08:35:17;21.50;99.90
15625;DHT22;7912;51.376;6.126;2022-09-09T08:37:48;21.60;99.90
15625;DHT22;7912;51.376;6.126;2022-09-09T08:40:24;21.60;99.90
15625;DHT22;7912;51.376;6.126;2022-09-09T08:42:57;21.60;99.90
15625;DHT22;7912;51.376;6.126;2022-09-09T08:46:06;21.60;99.90
15625;DHT22;7912;51.376;6.126;2022-09-09T08:49:14;21.70;99.90
15625;DHT22;7912;51.376;6.126;2022-09-09T08:51:49;21.80;99.90
15625;DHT22;7912;51.376;6.126;2022-09-09T08:54:20;21.80;99.90
15625;DHT22;7912;51.376;6.126;2022-09-09T08:57:21;21.90;99.90
15625;DHT22;7912;51.376;6.126;2022-09-09T08:59:56;21.90;99.90
15625;DHT22;7912;51.376;6.126;2022-09-09T09:02:52;21.90;99.90
15625;DHT22;7912;51.376;6.126;2022-09-09T09:05:35;22.00;99.90
15625;DHT22;7912;51.376;6.126;2022-09-09T09:08:40;22.20;99.90
15625;DHT22;7912;51.376;6.126;2022-09-09T09:11:13;22.40;99.90
15625;DHT22;7912;51.376;6.126;2022-09-09T09:13:50;22.60;99.90
15625;DHT22;7912;51.376;6.126;2022-09-09T09:19:37;22.80;99.90
15625;DHT22;7912;51.376;6.126;2022-09-09T09:25:35;22.80;99.90
15625;DHT22;7912;51.376;6.126;2022-09-09T09:28:16;22.80;99.90
15625;DHT22;7912;51.376;6.126;2022-09-09T09:31:03;22.80;99.90
15625;DHT22;7912;51.376;6.126;2022-09-09T09:36:10;22.80;99.90
15625;DHT22;7912;51.376;6.126;2022-09-09T09:38:37;22.80;99.90
15625;DHT22;7912;51.376;6.126;2022-09-09T09:41:36;22.80;99.90
15625;DHT22;7912;51.376;6.126;2022-09-09T09:44:26;22.80;99.90
15625;DHT22;7912;51.376;6.126;2022-09-09T09:47:21;22.80;99.90
15625;DHT22;7912;51.376;6.126;2022-09-09T09:49:58;22.70;99.90
15625;DHT22;7912;51.376;6.126;2022-09-09T09:52:32;22.60;99.90
15625;DHT22;7912;51.376;6.126;2022-09-09T09:55:03;22.50;99.90
15625;DHT22;7912;51.376;6.126;2022-09-09T09:57:39;22.50;99.90
15625;DHT22;7912;51.376;6.126;2022-09-09T10:00:18;22.40;99.90
15625;DHT22;7912;51.376;6.126;2022-09-09T10:02:48;22.30;99.90
15625;DHT22;7912;51.376;6.126;2022-09-09T10:05:24;22.20;99.90
15625;DHT22;7912;51.376;6.126;2022-09-09T10:08:15;22.10;99.90
15625;DHT22;7912;51.376;6.126;2022-09-09T10:11:23;22.10;99.90
15625;DHT22;7912;51.376;6.126;2022-09-09T10:17:13;22.00;99.90
15625;DHT22;7912;51.376;6.126;2022-09-09T10:20:51;22.10;99.90
15625;DHT22;7912;51.376;6.126;2022-09-09T10:22:51;22.10;99.90
15625;DHT22;7912;51.376;6.126;2022-09-09T10:28:54;22.30;99.90
15625;DHT22;7912;51.376;6.126;2022-09-09T10:35:02;22.40;99.90
15625;DHT22;7912;51.376;6.126;2022-09-09T10:52:31;22.60;99.90
15625;DHT22;7912;51.376;6.126;2022-09-09T10:59:11;22.70;99.90
15625;DHT22;7912;51.376;6.126;2022-09-09T11:01:52;22.50;99.90
15625;DHT22;7912;51.376;6.126;2022-09-09T11:04:29;22.30;99.90
15625;DHT22;7912;51.376;6.126;2022-09-09T11:07:13;22.20;99.90
15625;DHT22;7912;51.376;6.126;2022-09-09T11:09:54;22.00;99.90
15625;DHT22;7912;51.376;6.126;2022-09-09T11:12:27;22.00;99.90
15625;DHT22;7912;51.376;6.126;2022-09-09T11:15:04;22.00;99.90
15625;DHT22;7912;51.376;6.126;2022-09-09T11:17:53;22.10;99.90
15625;DHT22;7912;51.376;6.126;2022-09-09T11:20:26;22.10;99.90
15625;DHT22;7912;51.376;6.126;2022-09-09T11:27:07;22.20;99.90
15625;DHT22;7912;51.376;6.126;2022-09-09T11:39:50;22.00;99.90
15625;DHT22;7912;51.376;6.126;2022-09-09T11:44:43;21.60;99.90
15625;DHT22;7912;51.376;6.126;2022-09-09T11:51:40;21.30;99.90
15625;DHT22;7912;51.376;6.126;2022-09-09T11:54:32;21.20;99.90
15625;DHT22;7912;51.376;6.126;2022-09-09T11:57:24;21.10;99.90
15625;DHT22;7912;51.376;6.126;2022-09-09T11:59:57;21.00;99.90
15625;DHT22;7912;51.376;6.126;2022-09-09T12:02:28;20.90;99.90
15625;DHT22;7912;51.376;6.126;2022-09-09T12:05:07;20.70;99.90
15625;DHT22;7912;51.376;6.126;2022-09-09T12:08:16;20.60;99.90
15625;DHT22;7912;51.376;6.126;2022-09-09T12:11:46;20.50;99.90
15625;DHT22;7912;51.376;6.126;2022-09-09T12:18:00;20.40;99.90
15625;DHT22;7912;51.376;6.126;2022-09-09T12:24:11;20.90;99.90
15625;DHT22;7912;51.376;6.126;2022-09-09T12:26:52;21.10;99.90
15625;DHT22;7912;51.376;6.126;2022-09-09T12:29:45;21.40;99.90
15625;DHT22;7912;51.376;6.126;2022-09-09T12:32:27;21.60;99.90
15625;DHT22;7912;51.376;6.126;2022-09-09T12:35:26;21.80;99.90
15625;DHT22;7912;51.376;6.126;2022-09-09T12:41:21;22.20;99.90
15625;DHT22;7912;51.376;6.126;2022-09-09T12:44:08;22.30;99.90
15625;DHT22;7912;51.376;6.126;2022-09-09T12:46:40;22.50;99.90
15625;DHT22;7912;51.376;6.126;2022-09-09T12:49:34;22.60;99.90
15625;DHT22;7912;51.376;6.126;2022-09-09T12:52:18;22.70;99.90
15625;DHT22;7912;51.376;6.126;2022-09-09T12:54:51;22.90;99.90
15625;DHT22;7912;51.376;6.126;2022-09-09T12:57:24;23.00;99.90
15625;DHT22;7912;51.376;6.126;2022-09-09T13:03:14;23.10;99.90
15625;DHT22;7912;51.376;6.126;2022-09-09T13:05:44;23.20;99.90
15625;DHT22;7912;51.376;6.126;2022-09-09T13:08:15;23.30;99.90
15625;DHT22;7912;51.376;6.126;2022-09-09T13:10:51;23.30;99.90
15625;DHT22;7912;51.376;6.126;2022-09-09T13:13:37;23.30;99.90
15625;DHT22;7912;51.376;6.126;2022-09-09T13:16:18;23.30;99.90
15625;DHT22;7912;51.376;6.126;2022-09-09T13:19:13;23.30;99.90
15625;DHT22;7912;51.376;6.126;2022-09-09T13:21:51;23.40;99.90
15625;DHT22;7912;51.376;6.126;2022-09-09T13:24:31;23.50;99.90
15625;DHT22;7912;51.376;6.126;2022-09-09T13:27:19;23.60;99.90
15625;DHT22;7912;51.376;6.126;2022-09-09T13:29:52;23.60;99.90
15625;DHT22;7912;51.376;6.126;2022-09-09T13:32:25;23.70;99.90
15625;DHT22;7912;51.376;6.126;2022-09-09T13:34:59;23.70;99.90
15625;DHT22;7912;51.376;6.126;2022-09-09T13:37:36;23.70;99.90
15625;DHT22;7912;51.376;6.126;2022-09-09T13:40:05;23.70;99.90
15625;DHT22;7912;51.376;6.126;2022-09-09T13:42:44;23.70;99.90
15625;DHT22;7912;51.376;6.126;2022-09-09T13:45:20;23.80;99.90
15625;DHT22;7912;51.376;6.126;2022-09-09T13:47:49;23.90;99.90
15625;DHT22;7912;51.376;6.126;2022-09-09T13:50:31;23.90;99.90
15625;DHT22;7912;51.376;6.126;2022-09-09T13:52:59;23.90;99.90
15625;DHT22;7912;51.376;6.126;2022-09-09T13:55:28;23.90;99.90
15625;DHT22;7912;51.376;6.126;2022-09-09T13:57:58;23.80;99.90
15625;DHT22;7912;51.376;6.126;2022-09-09T14:00:31;23.70;99.90
15625;DHT22;7912;51.376;6.126;2022-09-09T14:03:01;23.50;99.90
15625;DHT22;7912;51.376;6.126;2022-09-09T14:05:41;23.40;99.90
15625;DHT22;7912;51.376;6.126;2022-09-09T14:08:21;23.20;99.90
15625;DHT22;7912;51.376;6.126;2022-09-09T14:10:56;23.00;99.90
15625;DHT22;7912;51.376;6.126;2022-09-09T14:13:26;22.90;99.90
15625;DHT22;7912;51.376;6.126;2022-09-09T14:15:56;22.70;99.90
15625;DHT22;7912;51.376;6.126;2022-09-09T14:18:26;22.60;99.90
15625;DHT22;7912;51.376;6.126;2022-09-09T14:21:05;22.60;99.90
15625;DHT22;7912;51.376;6.126;2022-09-09T14:23:35;22.70;99.90
15625;DHT22;7912;51.376;6.126;2022-09-09T14:26:02;23.00;99.90
15625;DHT22;7912;51.376;6.126;2022-09-09T14:28:32;23.30;99.90
15625;DHT22;7912;51.376;6.126;2022-09-09T14:31:20;23.60;99.90
15625;DHT22;7912;51.376;6.126;2022-09-09T14:33:48;23.80;99.90
15625;DHT22;7912;51.376;6.126;2022-09-09T14:36:18;23.90;99.90
15625;DHT22;7912;51.376;6.126;2022-09-09T14:38:46;24.00;99.90
15625;DHT22;7912;51.376;6.126;2022-09-09T14:41:17;24.00;99.90
15625;DHT22;7912;51.376;6.126;2022-09-09T14:43:49;24.10;99.90
15625;DHT22;7912;51.376;6.126;2022-09-09T14:46:18;24.20;99.90
15625;DHT22;7912;51.376;6.126;2022-09-09T14:48:55;24.40;99.90
15625;DHT22;7912;51.376;6.126;2022-09-09T14:51:24;24.60;99.90
15625;DHT22;7912;51.376;6.126;2022-09-09T14:53:55;24.80;99.90
15625;DHT22;7912;51.376;6.126;2022-09-09T14:56:34;25.00;99.90
15625;DHT22;7912;51.376;6.126;2022-09-09T14:59:04;25.20;99.90
15625;DHT22;7912;51.376;6.126;2022-09-09T15:01:32;25.40;99.90
15625;DHT22;7912;51.376;6.126;2022-09-09T15:04:04;25.60;99.90
15625;DHT22;7912;51.376;6.126;2022-09-09T15:06:35;25.80;99.90
15625;DHT22;7912;51.376;6.126;2022-09-09T15:09:04;26.00;99.90
15625;DHT22;7912;51.376;6.126;2022-09-09T15:11:36;26.30;99.90
15625;DHT22;7912;51.376;6.126;2022-09-09T15:14:08;26.60;99.90
15625;DHT22;7912;51.376;6.126;2022-09-09T15:16:39;26.70;99.90
15625;DHT22;7912;51.376;6.126;2022-09-09T15:19:07;26.90;99.90
15625;DHT22;7912;51.376;6.126;2022-09-09T15:21:36;26.90;99.90
15625;DHT22;7912;51.376;6.126;2022-09-09T15:24:05;26.90;99.70
15625;DHT22;7912;51.376;6.126;2022-09-09T15:26:35;26.70;99.60
15625;DHT22;7912;51.376;6.126;2022-09-09T15:29:05;26.60;99.90
15625;DHT22;7912;51.376;6.126;2022-09-09T15:31:35;26.40;99.90
15625;DHT22;7912;51.376;6.126;2022-09-09T15:34:05;26.20;99.90
15625;DHT22;7912;51.376;6.126;2022-09-09T15:36:38;26.10;99.90
15625;DHT22;7912;51.376;6.126;2022-09-09T15:39:11;26.10;99.90
15625;DHT22;7912;51.376;6.126;2022-09-09T15:41:39;26.10;99.90
15625;DHT22;7912;51.376;6.126;2022-09-09T15:44:11;26.00;99.90
15625;DHT22;7912;51.376;6.126;2022-09-09T15:46:46;26.00;99.90
15625;DHT22;7912;51.376;6.126;2022-09-09T15:49:22;25.90;99.90
15625;DHT22;7912;51.376;6.126;2022-09-09T15:52:00;25.80;99.90
15625;DHT22;7912;51.376;6.126;2022-09-09T15:54:35;25.70;99.90
15625;DHT22;7912;51.376;6.126;2022-09-09T15:57:07;25.70;99.90
15625;DHT22;7912;51.376;6.126;2022-09-09T15:59:39;25.70;99.90
15625;DHT22;7912;51.376;6.126;2022-09-09T16:02:12;25.70;99.90
15625;DHT22;7912;51.376;6.126;2022-09-09T16:04:39;25.60;99.90
15625;DHT22;7912;51.376;6.126;2022-09-09T16:07:07;25.60;99.90
15625;DHT22;7912;51.376;6.126;2022-09-09T16:09:35;25.60;99.90
15625;DHT22;7912;51.376;6.126;2022-09-09T16:12:04;25.50;99.90
15625;DHT22;7912;51.376;6.126;2022-09-09T16:14:33;25.40;99.90
15625;DHT22;7912;51.376;6.126;2022-09-09T16:17:06;25.30;99.90
15625;DHT22;7912;51.376;6.126;2022-09-09T16:19:34;25.20;99.90
15625;DHT22;7912;51.376;6.126;2022-09-09T16:22:04;25.10;99.90
15625;DHT22;7912;51.376;6.126;2022-09-09T16:24:33;25.00;99.90
15625;DHT22;7912;51.376;6.126;2022-09-09T16:27:00;25.00;99.90
15625;DHT22;7912;51.376;6.126;2022-09-09T16:29:30;24.90;99.90
15625;DHT22;7912;51.376;6.126;2022-09-09T16:32:00;24.80;99.90
15625;DHT22;7912;51.376;6.126;2022-09-09T16:34:32;24.80;99.90
15625;DHT22;7912;51.376;6.126;2022-09-09T16:37:00;24.80;99.90
15625;DHT22;7912;51.376;6.126;2022-09-09T16:39:33;24.70;99.90
15625;DHT22;7912;51.376;6.126;2022-09-09T16:42:01;24.60;99.90
15625;DHT22;7912;51.376;6.126;2022-09-09T16:44:34;24.50;99.90
15625;DHT22;7912;51.376;6.126;2022-09-09T16:47:02;24.50;99.90
15625;DHT22;7912;51.376;6.126;2022-09-09T16:49:30;24.40;99.90
15625;DHT22;7912;51.376;6.126;2022-09-09T16:51:59;24.30;99.90
15625;DHT22;7912;51.376;6.126;2022-09-09T16:54:29;24.20;99.90
15625;DHT22;7912;51.376;6.126;2022-09-09T16:56:57;24.20;99.90
15625;DHT22;7912;51.376;6.126;2022-09-09T16:59:27;24.10;99.90
15625;DHT22;7912;51.376;6.126;2022-09-09T17:01:55;24.10;99.90
15625;DHT22;7912;51.376;6.126;2022-09-09T17:04:26;24.00;99.90
15625;DHT22;7912;51.376;6.126;2022-09-09T17:06:55;23.90;99.90
15625;DHT22;7912;51.376;6.126;2022-09-09T17:09:25;23.90;99.90
15625;DHT22;7912;51.376;6.126;2022-09-09T17:11:59;23.80;99.90
15625;DHT22;7912;51.376;6.126;2022-09-09T17:14:27;23.70;99.90
15625;DHT22;7912;51.376;6.126;2022-09-09T17:17:01;23.60;99.90
15625;DHT22;7912;51.376;6.126;2022-09-09T17:19:48;23.60;99.90
15625;DHT22;7912;51.376;6.126;2022-09-09T17:22:17;23.60;99.90
15625;DHT22;7912;51.376;6.126;2022-09-09T17:24:44;23.50;99.90
15625;DHT22;7912;51.376;6.126;2022-09-09T17:27:15;23.40;99.90
15625;DHT22;7912;51.376;6.126;2022-09-09T17:29:42;23.40;99.90
15625;DHT22;7912;51.376;6.126;2022-09-09T17:32:12;23.30;99.90
15625;DHT22;7912;51.376;6.126;2022-09-09T17:35:15;23.20;99.90
15625;DHT22;7912;51.376;6.126;2022-09-09T17:37:45;23.10;99.90
15625;DHT22;7912;51.376;6.126;2022-09-09T17:40:16;23.10;99.90
15625;DHT22;7912;51.376;6.126;2022-09-09T17:42:43;23.00;99.90
15625;DHT22;7912;51.376;6.126;2022-09-09T17:45:34;23.00;99.90
15625;DHT22;7912;51.376;6.126;2022-09-09T17:48:05;22.90;99.90
15625;DHT22;7912;51.376;6.126;2022-09-09T17:50:43;22.90;99.90
15625;DHT22;7912;51.376;6.126;2022-09-09T17:53:13;22.80;99.90
15625;DHT22;7912;51.376;6.126;2022-09-09T17:55:40;22.70;99.90
15625;DHT22;7912;51.376;6.126;2022-09-09T17:58:10;22.60;99.90
15625;DHT22;7912;51.376;6.126;2022-09-09T18:00:37;22.50;99.90
15625;DHT22;7912;51.376;6.126;2022-09-09T18:06:17;22.00;99.90
15625;DHT22;7912;51.376;6.126;2022-09-09T18:08:51;21.90;99.90
15625;DHT22;7912;51.376;6.126;2022-09-09T18:11:26;21.60;99.90
15625;DHT22;7912;51.376;6.126;2022-09-09T18:14:00;21.40;99.90
15625;DHT22;7912;51.376;6.126;2022-09-09T18:16:43;21.20;99.90
15625;DHT22;7912;51.376;6.126;2022-09-09T18:19:43;21.10;99.90
15625;DHT22;7912;51.376;6.126;2022-09-09T18:30:18;20.50;99.90
15625;DHT22;7912;51.376;6.126;2022-09-09T18:32:51;20.30;99.90
15625;DHT22;7912;51.376;6.126;2022-09-09T18:35:24;20.20;99.90
15625;DHT22;7912;51.376;6.126;2022-09-09T18:37:53;20.10;99.90
15625;DHT22;7912;51.376;6.126;2022-09-09T18:40:32;20.00;99.90
15625;DHT22;7912;51.376;6.126;2022-09-09T18:43:33;19.90;99.90
15625;DHT22;7912;51.376;6.126;2022-09-09T18:49:42;19.80;99.90
15625;DHT22;7912;51.376;6.126;2022-09-09T18:52:13;19.70;99.90
15625;DHT22;7912;51.376;6.126;2022-09-09T18:55:04;19.70;99.90
15625;DHT22;7912;51.376;6.126;2022-09-09T19:01:40;19.60;99.90
15625;DHT22;7912;51.376;6.126;2022-09-09T19:04:29;19.50;99.90
15625;DHT22;7912;51.376;6.126;2022-09-09T19:07:37;19.50;99.90
15625;DHT22;7912;51.376;6.126;2022-09-09T19:10:13;19.50;99.90